createdAt,value
2023-04-18T00:00:25.160Z,26.34
2023-04-18T00:01:25.197Z,28.42
2023-04-18T00:02:25.280Z,25.18
2023-04-18T00:03:25.483Z,27.48
2023-04-18T00:04:25.426Z,28.99
2023-04-18T00:05:25.367Z,27.76
2023-04-18T00:06:25.368Z,31.58
2023-04-18T00:07:25.405Z,30.85
2023-04-18T00:08:25.461Z,27.34
2023-04-18T00:09:25.580Z,30.47
2023-04-18T00:10:25.528Z,31.27
2023-04-18T00:11:25.570Z,30.17
2023-04-18T00:12:25.602Z,31.16
2023-04-18T00:13:25.645Z,29.85
2023-04-18T00:14:25.678Z,29.43
2023-04-18T00:15:25.727Z,28.10
2023-04-18T00:16:25.773Z,25.32
2023-04-18T00:17:25.797Z,27.07
2023-04-18T00:18:25.803Z,29.00
2023-04-18T00:19:25.844Z,28.76
2023-04-18T00:20:25.889Z,28.35
2023-04-18T00:21:25.924Z,29.40
2023-04-18T00:22:25.975Z,27.01
2023-04-18T00:23:25.994Z,28.45
2023-04-18T00:24:26.043Z,29.32
2023-04-18T00:25:26.077Z,29.02
2023-04-18T00:26:26.110Z,27.33
2023-04-18T00:27:26.146Z,28.32
2023-04-18T00:28:26.186Z,26.81
2023-04-18T00:29:26.225Z,26.49
2023-04-18T00:30:26.283Z,27.44
2023-04-18T00:31:26.411Z,25.00
2023-04-18T00:32:26.354Z,28.43
2023-04-18T00:33:26.382Z,28.70
2023-04-18T00:34:26.429Z,26.40
2023-04-18T00:35:26.467Z,29.51
2023-04-18T00:36:26.509Z,26.31
2023-04-18T00:37:26.551Z,25.40
2023-04-18T00:38:26.587Z,26.90
2023-04-18T00:39:26.633Z,28.07
2023-04-18T00:40:26.673Z,25.00
2023-04-18T00:41:26.712Z,26.53
2023-04-18T00:42:26.747Z,29.35
2023-04-18T00:43:26.795Z,26.39
2023-04-18T00:44:26.823Z,29.53
2023-04-18T00:45:26.872Z,26.49
2023-04-18T00:46:26.964Z,26.78
2023-04-18T00:47:27.013Z,26.31
2023-04-18T00:48:26.992Z,27.41
2023-04-18T00:49:27.039Z,28.81
2023-04-18T00:50:27.082Z,26.74
2023-04-18T00:51:27.125Z,30.74
2023-04-18T00:52:27.252Z,25.94
2023-04-18T00:53:27.218Z,26.74
2023-04-18T00:54:27.276Z,27.98
2023-04-18T00:55:27.318Z,30.61
2023-04-18T00:56:27.365Z,31.04
2023-04-18T00:57:27.399Z,26.76
2023-04-18T00:58:27.432Z,29.78
2023-04-18T00:59:27.446Z,30.62
2023-04-18T01:00:27.525Z,29.77
2023-04-18T01:01:27.594Z,29.63
2023-04-18T01:02:27.673Z,29.73
2023-04-18T01:03:27.777Z,28.70
2023-04-18T01:04:27.787Z,28.60
2023-04-18T01:05:27.700Z,29.53
2023-04-18T01:06:27.743Z,28.13
2023-04-18T01:07:27.788Z,29.98
2023-04-18T01:08:27.824Z,26.92
2023-04-18T01:09:27.870Z,29.11
2023-04-18T01:10:27.901Z,28.48
2023-04-18T01:11:27.954Z,28.46
2023-04-18T01:12:27.998Z,30.61
2023-04-18T01:13:28.046Z,28.77
2023-04-18T01:14:28.090Z,27.09
2023-04-18T01:15:28.132Z,29.15
2023-04-18T01:16:28.357Z,30.32
2023-04-18T01:17:28.323Z,28.51
2023-04-18T01:18:28.279Z,27.58
2023-04-18T01:19:28.326Z,27.78
2023-04-18T01:20:28.370Z,27.70
2023-04-18T01:21:28.416Z,26.32
2023-04-18T01:22:28.461Z,27.18
2023-04-18T01:23:28.513Z,28.33
2023-04-18T01:24:28.555Z,29.83
2023-04-18T01:25:28.596Z,29.79
2023-04-18T01:26:28.638Z,28.59
2023-04-18T01:27:28.690Z,25.37
2023-04-18T01:28:28.717Z,28.05
2023-04-18T01:29:28.758Z,30.67
2023-04-18T01:30:28.795Z,29.12
2023-04-18T01:31:28.901Z,29.81
2023-04-18T01:32:28.914Z,28.63
2023-04-18T01:33:28.920Z,28.80
2023-04-18T01:34:28.966Z,32.79
2023-04-18T01:35:29.014Z,31.21
2023-04-18T01:36:29.053Z,29.65
2023-04-18T01:37:29.095Z,32.32
2023-04-18T01:38:29.145Z,29.80
2023-04-18T01:39:29.189Z,30.65
2023-04-18T01:40:29.225Z,29.49
2023-04-18T01:41:29.270Z,30.50
2023-04-18T01:42:29.333Z,28.08
2023-04-18T01:43:29.373Z,28.28
2023-04-18T01:44:29.414Z,29.93
2023-04-18T01:45:29.457Z,30.43
2023-04-18T01:46:29.585Z,31.59
2023-04-18T01:47:29.550Z,28.10
2023-04-18T01:48:29.599Z,27.73
2023-04-18T01:49:29.649Z,27.04
2023-04-18T01:50:29.677Z,29.16
2023-04-18T01:51:29.725Z,29.88
2023-04-18T01:52:29.772Z,29.88
2023-04-18T01:53:29.825Z,25.59
2023-04-18T01:54:29.868Z,28.39
2023-04-18T01:55:29.904Z,31.52
2023-04-18T01:56:29.950Z,26.27
2023-04-18T01:57:29.997Z,28.80
2023-04-18T01:58:30.049Z,29.15
2023-04-18T01:59:30.097Z,29.93
2023-04-18T02:00:30.176Z,26.73
2023-04-18T02:01:30.185Z,27.85
2023-04-18T02:02:30.393Z,27.33
2023-04-18T02:03:30.380Z,29.90
2023-04-18T02:04:30.313Z,25.94
2023-04-18T02:05:30.351Z,28.14
2023-04-18T02:06:30.391Z,28.06
2023-04-18T02:07:30.452Z,28.23
2023-04-18T02:08:30.459Z,25.76
2023-04-18T02:09:30.496Z,27.04
2023-04-18T02:10:30.534Z,27.47
2023-04-18T02:11:30.577Z,27.94
2023-04-18T02:12:30.616Z,28.11
2023-04-18T02:13:30.668Z,31.94
2023-04-18T02:14:30.702Z,25.62
2023-04-18T02:15:30.744Z,27.33
2023-04-18T02:16:30.836Z,26.26
2023-04-18T02:17:30.842Z,29.04
2023-04-18T02:18:30.869Z,31.27
2023-04-18T02:19:30.912Z,29.27
2023-04-18T02:20:30.955Z,29.51
2023-04-18T02:21:30.988Z,28.90
2023-04-18T02:22:31.039Z,29.25
2023-04-18T02:23:31.064Z,27.11
2023-04-18T02:24:31.093Z,28.48
2023-04-18T02:25:31.139Z,28.05
2023-04-18T02:26:31.187Z,30.38
2023-04-18T02:27:31.223Z,28.71
2023-04-18T02:28:31.254Z,28.33
2023-04-18T02:29:31.298Z,28.80
2023-04-18T02:30:31.343Z,29.26
2023-04-18T02:31:31.433Z,29.75
2023-04-18T02:32:31.499Z,29.27
2023-04-18T02:33:31.449Z,31.46
2023-04-18T02:34:31.506Z,29.63
2023-04-18T02:35:31.553Z,28.01
2023-04-18T02:36:31.586Z,28.43
2023-04-18T02:37:31.627Z,29.10
2023-04-18T02:38:31.680Z,30.64
2023-04-18T02:39:31.705Z,28.35
2023-04-18T02:40:31.765Z,29.29
2023-04-18T02:41:31.815Z,27.96
2023-04-18T02:42:31.855Z,29.19
2023-04-18T02:43:31.904Z,30.08
2023-04-18T02:44:31.963Z,28.48
2023-04-18T02:45:32.018Z,27.80
2023-04-18T02:46:32.132Z,29.75
2023-04-18T02:47:37.706Z,27.96
2023-04-18T02:48:33.130Z,28.16
2023-04-18T02:49:32.098Z,28.23
2023-04-18T02:50:32.111Z,29.63
2023-04-18T02:51:32.093Z,28.23
2023-04-18T02:52:32.150Z,30.47
2023-04-18T02:53:32.076Z,31.76
2023-04-18T02:54:32.071Z,29.09
2023-04-18T02:55:32.051Z,29.65
2023-04-18T02:56:32.045Z,28.03
2023-04-18T02:57:32.048Z,31.24
2023-04-18T02:58:32.095Z,28.16
2023-04-18T02:59:32.211Z,29.51
2023-04-18T03:00:32.196Z,27.77
2023-04-18T03:01:32.294Z,30.29
2023-04-18T03:02:32.337Z,29.10
2023-04-18T03:03:32.364Z,26.69
2023-04-18T03:04:32.407Z,26.27
2023-04-18T03:05:32.404Z,26.17
2023-04-18T03:06:32.438Z,27.08
2023-04-18T03:07:32.494Z,25.00
2023-04-18T03:08:32.527Z,33.48
2023-04-18T03:09:32.570Z,29.32
2023-04-18T03:10:32.617Z,27.34
2023-04-18T03:11:32.639Z,30.70
2023-04-18T03:12:32.681Z,28.87
2023-04-18T03:13:32.734Z,30.23
2023-04-18T03:14:32.786Z,27.15
2023-04-18T03:15:32.842Z,27.69
2023-04-18T03:16:32.871Z,25.67
2023-04-18T03:17:32.944Z,28.12
2023-04-18T03:18:32.984Z,28.12
2023-04-18T03:19:33.002Z,27.68
2023-04-18T03:20:33.048Z,27.10
2023-04-18T03:21:33.081Z,26.63
2023-04-18T03:22:33.142Z,26.60
2023-04-18T03:23:33.174Z,26.18
2023-04-18T03:24:33.384Z,28.31
2023-04-18T03:25:33.270Z,28.54
2023-04-18T03:26:33.299Z,28.38
2023-04-18T03:27:33.353Z,26.01
2023-04-18T03:28:33.404Z,26.76
2023-04-18T03:29:33.463Z,26.02
2023-04-18T03:30:33.490Z,26.38
2023-04-18T03:31:33.619Z,25.00
2023-04-18T03:32:33.610Z,30.16
2023-04-18T03:33:33.623Z,29.36
2023-04-18T03:34:33.668Z,29.30
2023-04-18T03:35:33.714Z,28.38
2023-04-18T03:36:33.752Z,29.79
2023-04-18T03:37:33.805Z,29.82
2023-04-18T03:38:33.835Z,28.12
2023-04-18T03:39:33.873Z,26.88
2023-04-18T03:40:33.943Z,28.98
2023-04-18T03:41:33.953Z,28.29
2023-04-18T03:42:33.988Z,28.92
2023-04-18T03:43:34.033Z,30.41
2023-04-18T03:44:34.065Z,28.85
2023-04-18T03:45:34.116Z,31.02
2023-04-18T03:46:34.225Z,29.29
2023-04-18T03:47:34.277Z,27.33
2023-04-18T03:48:34.240Z,31.32
2023-04-18T03:49:34.292Z,27.10
2023-04-18T03:50:34.331Z,28.47
2023-04-18T03:51:34.365Z,29.49
2023-04-18T03:52:34.898Z,29.03
2023-04-18T03:53:34.446Z,27.55
2023-04-18T03:54:34.497Z,28.52
2023-04-18T03:55:34.547Z,27.70
2023-04-18T03:56:34.576Z,27.39
2023-04-18T03:57:34.634Z,30.54
2023-04-18T03:58:34.675Z,25.44
2023-04-18T03:59:34.724Z,27.22
2023-04-18T04:00:34.763Z,28.73
2023-04-18T04:01:34.859Z,27.67
2023-04-18T04:02:35.041Z,25.95
2023-04-18T04:03:35.024Z,27.28
2023-04-18T04:04:35.009Z,26.36
2023-04-18T04:05:34.990Z,30.19
2023-04-18T04:06:35.051Z,29.89
2023-04-18T04:07:35.084Z,28.64
2023-04-18T04:08:35.127Z,28.47
2023-04-18T04:09:35.169Z,26.54
2023-04-18T04:10:35.193Z,29.93
2023-04-18T04:11:35.229Z,27.12
2023-04-18T04:12:35.339Z,25.69
2023-04-18T04:13:35.318Z,27.78
2023-04-18T04:14:35.347Z,26.99
2023-04-18T04:15:35.389Z,29.14
2023-04-18T04:16:35.464Z,27.31
2023-04-18T04:17:35.522Z,25.87
2023-04-18T04:18:35.543Z,26.45
2023-04-18T04:19:35.584Z,29.31
2023-04-18T04:20:35.628Z,26.57
2023-04-18T04:21:35.663Z,27.72
2023-04-18T04:22:35.700Z,26.73
2023-04-18T04:23:35.731Z,29.15
2023-04-18T04:24:35.781Z,26.86
2023-04-18T04:25:35.829Z,26.46
2023-04-18T04:26:35.872Z,29.17
2023-04-18T04:27:35.923Z,29.42
2023-04-18T04:28:35.981Z,28.67
2023-04-18T04:29:36.000Z,27.93
2023-04-18T04:30:36.052Z,27.54
2023-04-18T04:31:36.123Z,27.78
2023-04-18T04:32:36.163Z,25.86
2023-04-18T04:33:36.170Z,28.07
2023-04-18T04:34:36.222Z,27.55
2023-04-18T04:35:36.268Z,29.06
2023-04-18T04:36:36.303Z,28.99
2023-04-18T04:37:36.348Z,27.00
2023-04-18T04:38:36.382Z,26.32
2023-04-18T04:39:36.417Z,26.51
2023-04-18T04:40:36.471Z,29.20
2023-04-18T04:41:36.506Z,29.01
2023-04-18T04:42:36.534Z,28.79
2023-04-18T04:43:36.582Z,26.60
2023-04-18T04:44:36.627Z,26.05
2023-04-18T04:45:36.666Z,29.81
2023-04-18T04:46:36.681Z,28.40
2023-04-18T04:47:36.798Z,28.51
2023-04-18T04:48:36.777Z,28.23
2023-04-18T04:49:36.819Z,27.36
2023-04-18T04:50:36.865Z,27.68
2023-04-18T04:51:36.899Z,29.73
2023-04-18T04:52:36.958Z,27.96
2023-04-18T04:53:36.957Z,30.27
2023-04-18T04:54:37.013Z,28.42
2023-04-18T04:55:37.052Z,27.94
2023-04-18T04:56:37.897Z,29.39
2023-04-18T04:57:37.121Z,27.21
2023-04-18T04:58:37.164Z,28.39
2023-04-18T04:59:37.182Z,28.24
2023-04-18T05:00:37.221Z,28.07
2023-04-18T05:01:37.306Z,25.44
2023-04-18T05:02:37.442Z,29.04
2023-04-18T05:03:37.654Z,31.79
2023-04-18T05:04:37.561Z,28.74
2023-04-18T05:05:37.441Z,27.17
2023-04-18T05:06:40.060Z,29.12
2023-04-18T05:07:37.484Z,33.51
2023-04-18T05:08:37.477Z,30.62
2023-04-18T05:09:37.486Z,30.92
2023-04-18T05:10:37.466Z,28.54
2023-04-18T05:11:37.463Z,30.18
2023-04-18T05:12:37.465Z,29.54
2023-04-18T05:13:37.459Z,28.58
2023-04-18T05:14:37.456Z,26.88
2023-04-18T05:15:37.477Z,30.43
2023-04-18T05:16:37.491Z,31.39
2023-04-18T05:17:37.470Z,29.64
2023-04-18T05:18:37.448Z,32.93
2023-04-18T05:19:37.447Z,29.85
2023-04-18T05:20:37.444Z,31.87
2023-04-18T05:21:37.419Z,34.11
2023-04-18T05:22:37.441Z,42.40
2023-04-18T05:23:37.444Z,40.23
2023-04-18T05:24:37.421Z,42.97
2023-04-18T05:25:37.422Z,42.77
2023-04-18T05:26:37.426Z,46.67
2023-04-18T05:27:37.424Z,48.47
2023-04-18T05:28:37.429Z,62.17
2023-04-18T05:29:37.417Z,73.21
2023-04-18T05:30:37.439Z,72.06
2023-04-18T05:31:37.439Z,96.91
2023-04-18T05:32:37.427Z,101.47
2023-04-18T05:33:37.398Z,118.62
2023-04-18T05:34:38.738Z,126.60
2023-04-18T05:35:37.393Z,135.59
2023-04-18T05:36:37.375Z,164.12
2023-04-18T05:37:37.362Z,159.50
2023-04-18T05:38:37.356Z,157.21
2023-04-18T05:39:37.349Z,166.80
2023-04-18T05:40:37.338Z,175.00
2023-04-18T05:41:37.327Z,177.07
2023-04-18T05:42:37.334Z,179.71
2023-04-18T05:43:37.296Z,177.76
2023-04-18T05:44:37.285Z,185.29
2023-04-18T05:45:37.279Z,190.67
2023-04-18T05:46:37.913Z,199.64
2023-04-18T05:47:37.333Z,211.37
2023-04-18T05:48:37.235Z,213.11
2023-04-18T05:49:37.206Z,213.09
2023-04-18T05:50:37.190Z,226.52
2023-04-18T05:51:37.163Z,233.20
2023-04-18T05:52:37.161Z,234.08
2023-04-18T05:53:37.231Z,237.72
2023-04-18T05:54:37.919Z,242.03
2023-04-18T05:55:37.113Z,247.03
2023-04-18T05:56:37.097Z,208.14
2023-04-18T05:57:37.109Z,159.56
2023-04-18T05:58:37.143Z,125.96
2023-04-18T05:59:37.168Z,139.71
2023-04-18T06:00:37.199Z,147.61
2023-04-18T06:01:37.257Z,150.43
2023-04-18T06:02:37.386Z,156.10
2023-04-18T06:03:37.609Z,171.16
2023-04-18T06:04:37.602Z,188.27
2023-04-18T06:05:37.499Z,197.05
2023-04-18T06:06:37.497Z,202.37
2023-04-18T06:07:37.495Z,217.24
2023-04-18T06:08:37.536Z,220.16
2023-04-18T06:09:37.620Z,220.35
2023-04-18T06:11:37.639Z,230.99
2023-04-18T06:12:37.659Z,236.19
2023-04-18T06:13:37.690Z,243.66
2023-04-18T06:14:37.714Z,250.00
2023-04-18T06:15:37.749Z,249.85
2023-04-18T06:16:37.991Z,249.66
2023-04-18T06:17:37.873Z,247.44
2023-04-18T06:18:37.804Z,250.00
2023-04-18T06:19:37.825Z,249.69
2023-04-18T06:20:37.875Z,246.51
2023-04-18T06:21:37.854Z,250.00
2023-04-18T06:22:37.887Z,249.84
2023-04-18T06:23:37.906Z,245.24
2023-04-18T06:24:37.917Z,241.02
2023-04-18T06:25:37.948Z,236.19
2023-04-18T06:26:37.968Z,234.72
2023-04-18T06:27:38.004Z,184.32
2023-04-18T06:28:38.936Z,99.33
2023-04-18T06:29:38.122Z,42.72
2023-04-18T06:30:38.105Z,32.57
2023-04-18T06:31:38.209Z,50.44
2023-04-18T06:32:38.255Z,55.85
2023-04-18T06:33:38.270Z,68.23
2023-04-18T06:34:38.317Z,42.31
2023-04-18T06:35:38.391Z,40.62
2023-04-18T06:36:38.422Z,45.32
2023-04-18T06:37:39.446Z,62.41
2023-04-18T06:38:38.495Z,63.61
2023-04-18T06:39:38.507Z,63.15
2023-04-18T06:40:38.496Z,89.99
2023-04-18T06:41:38.541Z,99.48
2023-04-18T06:42:38.528Z,144.50
2023-04-18T06:43:38.747Z,143.20
2023-04-18T06:44:38.609Z,131.32
2023-04-18T06:45:38.837Z,127.56
2023-04-18T06:46:38.727Z,159.36
2023-04-18T06:47:38.794Z,165.74
2023-04-18T06:48:38.814Z,146.48
2023-04-18T06:49:38.850Z,144.67
2023-04-18T06:50:38.882Z,144.83
2023-04-18T06:51:38.902Z,147.71
2023-04-18T06:52:39.067Z,152.45
2023-04-18T06:53:38.950Z,153.02
2023-04-18T06:54:38.958Z,163.30
2023-04-18T06:55:38.977Z,167.62
2023-04-18T06:56:38.991Z,170.33
2023-04-18T06:57:39.001Z,174.92
2023-04-18T06:58:38.996Z,183.33
2023-04-18T06:59:38.988Z,182.91
2023-04-18T07:00:38.989Z,187.08
2023-04-18T07:01:39.015Z,191.54
2023-04-18T07:02:39.023Z,201.46
2023-04-18T07:03:38.997Z,207.33
2023-04-18T07:04:39.180Z,204.96
2023-04-18T07:05:38.960Z,219.47
2023-04-18T07:06:38.958Z,218.24
2023-04-18T07:07:38.976Z,225.53
2023-04-18T07:08:38.920Z,227.12
2023-04-18T07:09:38.910Z,232.54
2023-04-18T07:10:38.889Z,234.23
2023-04-18T07:11:38.855Z,231.39
2023-04-18T07:12:39.454Z,235.81
2023-04-18T07:13:38.909Z,259.76
2023-04-18T07:14:38.909Z,246.43
2023-04-18T07:15:38.950Z,250.00
2023-04-18T07:16:39.033Z,244.37
2023-04-18T07:17:39.048Z,239.94
2023-04-18T07:18:39.079Z,237.28
2023-04-18T07:19:39.031Z,242.33
2023-04-18T07:20:39.064Z,242.99
2023-04-18T07:21:39.083Z,244.43
2023-04-18T07:22:39.122Z,243.69
2023-04-18T07:23:39.191Z,242.75
2023-04-18T07:24:39.882Z,243.93
2023-04-18T07:25:39.193Z,239.66
2023-04-18T07:26:39.211Z,240.88
2023-04-18T07:27:39.198Z,242.13
2023-04-18T07:28:39.243Z,240.86
2023-04-18T07:29:39.247Z,240.04
2023-04-18T07:30:39.261Z,241.65
2023-04-18T07:31:39.272Z,240.93
2023-04-18T07:32:39.294Z,239.54
2023-04-18T07:33:39.289Z,238.99
2023-04-18T07:34:39.285Z,240.35
2023-04-18T07:35:39.296Z,238.38
2023-04-18T07:36:39.307Z,239.77
2023-04-18T07:37:39.317Z,238.82
2023-04-18T07:38:39.319Z,236.26
2023-04-18T07:39:39.344Z,235.35
2023-04-18T07:40:39.362Z,235.03
2023-04-18T07:41:39.352Z,234.31
2023-04-18T07:42:39.354Z,235.45
2023-04-18T07:43:39.376Z,234.68
2023-04-18T07:44:39.368Z,233.17
2023-04-18T07:45:39.375Z,232.28
2023-04-18T07:46:39.377Z,232.82
2023-04-18T07:47:39.371Z,231.83
2023-04-18T07:48:39.359Z,231.73
2023-04-18T07:49:39.369Z,232.39
2023-04-18T07:50:39.341Z,230.82
2023-04-18T07:51:39.345Z,230.55
2023-04-18T07:52:39.603Z,231.66
2023-04-18T07:53:39.332Z,230.29
2023-04-18T07:54:39.313Z,229.78
2023-04-18T07:55:39.305Z,229.10
2023-04-18T07:56:39.333Z,229.10
2023-04-18T07:57:39.274Z,228.42
2023-04-18T07:58:39.277Z,226.68
2023-04-18T07:59:40.895Z,226.42
2023-04-18T08:00:39.240Z,225.00
2023-04-18T08:01:39.235Z,226.72
2023-04-18T08:02:39.322Z,225.58
2023-04-18T08:03:39.361Z,223.13
2023-04-18T08:04:39.453Z,222.89
2023-04-18T08:05:39.258Z,224.78
2023-04-18T08:06:39.193Z,221.99
2023-04-18T08:07:39.187Z,222.81
2023-04-18T08:08:39.169Z,220.64
2023-04-18T08:09:39.159Z,222.36
2023-04-18T08:10:39.145Z,221.06
2023-04-18T08:11:39.138Z,219.10
2023-04-18T08:12:39.266Z,219.42
2023-04-18T08:13:39.111Z,220.13
2023-04-18T08:14:39.125Z,190.80
2023-04-18T08:15:39.136Z,132.02
2023-04-18T08:16:39.270Z,86.49
2023-04-18T08:17:39.281Z,49.74
2023-04-18T08:18:39.239Z,19.09
2023-04-18T08:19:39.271Z,14.58
2023-04-18T08:20:39.360Z,18.89
2023-04-18T08:21:39.387Z,25.00
2023-04-18T08:22:53.641Z,35.20
2023-04-18T08:23:40.427Z,32.89
2023-04-18T08:24:39.425Z,25.26
2023-04-18T08:25:39.405Z,10.72
2023-04-18T08:26:39.414Z,15.81
2023-04-18T08:27:39.392Z,0.00
2023-04-18T08:28:39.561Z,24.62
2023-04-18T08:29:39.380Z,37.37
2023-04-18T08:30:39.373Z,43.35
2023-04-18T08:31:39.392Z,54.85
2023-04-18T08:32:39.398Z,70.01
2023-04-18T08:33:39.324Z,81.20
2023-04-18T08:34:39.333Z,91.20
2023-04-18T08:35:39.343Z,98.05
2023-04-18T08:36:39.359Z,105.16
2023-04-18T08:37:39.359Z,114.08
2023-04-18T08:38:39.352Z,118.16
2023-04-18T08:39:39.363Z,123.82
2023-04-18T08:40:39.354Z,125.25
2023-04-18T08:41:39.336Z,119.93
2023-04-18T08:42:39.318Z,126.82
2023-04-18T08:43:39.322Z,131.15
2023-04-18T08:44:39.312Z,132.82
2023-04-18T08:45:39.354Z,137.51
2023-04-18T08:46:39.359Z,141.98
2023-04-18T08:47:39.382Z,147.50
2023-04-18T08:48:39.353Z,150.35
2023-04-18T08:49:39.364Z,157.00
2023-04-18T08:50:39.384Z,161.24
2023-04-18T08:51:39.423Z,161.71
2023-04-18T08:52:39.459Z,164.51
2023-04-18T08:53:39.495Z,169.04
2023-04-18T08:54:40.461Z,169.29
2023-04-18T08:55:39.441Z,170.46
2023-04-18T08:56:39.404Z,172.38
2023-04-18T08:57:39.454Z,176.36
2023-04-18T08:58:39.376Z,181.02
2023-04-18T08:59:39.333Z,180.93
2023-04-18T09:00:39.340Z,185.59
2023-04-18T09:01:39.357Z,185.57
2023-04-18T09:02:39.325Z,186.58
2023-04-18T09:03:39.385Z,187.21
2023-04-18T09:04:39.414Z,189.52
2023-04-18T09:05:39.333Z,191.99
2023-04-18T09:06:39.370Z,192.89
2023-04-18T09:07:39.419Z,196.16
2023-04-18T09:08:39.425Z,199.66
2023-04-18T09:09:39.454Z,198.92
2023-04-18T09:10:39.471Z,199.79
2023-04-18T09:11:39.504Z,201.68
2023-04-18T09:12:39.525Z,204.08
2023-04-18T09:13:39.538Z,203.08
2023-04-18T09:14:39.564Z,201.06
2023-04-18T09:15:39.614Z,204.11
2023-04-18T09:16:39.694Z,201.06
2023-04-18T09:17:39.684Z,183.37
2023-04-18T09:18:39.660Z,184.58
2023-04-18T09:19:39.675Z,180.73
2023-04-18T09:20:39.697Z,173.67
2023-04-18T09:21:39.725Z,181.06
2023-04-18T09:22:40.021Z,180.09
2023-04-18T09:23:39.775Z,179.95
2023-04-18T09:24:39.820Z,177.76
2023-04-18T09:25:42.601Z,176.24
2023-04-18T09:26:39.828Z,176.26
2023-04-18T09:27:39.804Z,170.37
2023-04-18T09:28:39.777Z,166.71
2023-04-18T09:29:39.764Z,162.46
2023-04-18T09:30:39.794Z,156.41
2023-04-18T09:31:39.714Z,152.06
2023-04-18T09:32:39.734Z,143.22
2023-04-18T09:33:39.643Z,144.49
2023-04-18T09:34:39.621Z,122.29
2023-04-18T09:35:39.598Z,131.26
2023-04-18T09:36:39.594Z,121.15
2023-04-18T09:37:39.549Z,129.43
2023-04-18T09:38:39.517Z,125.61
2023-04-18T09:39:39.480Z,117.19
2023-04-18T09:40:39.474Z,108.73
2023-04-18T09:41:39.451Z,90.29
2023-04-18T09:42:39.418Z,87.79
2023-04-18T09:43:39.403Z,79.50
2023-04-18T09:44:39.397Z,74.95
2023-04-18T09:45:39.350Z,66.23
2023-04-18T09:46:39.414Z,73.91
2023-04-18T09:47:39.313Z,63.63
2023-04-18T09:48:39.272Z,63.94
2023-04-18T09:49:39.255Z,62.92
2023-04-18T09:50:39.245Z,58.44
2023-04-18T09:51:39.204Z,55.00
2023-04-18T09:52:39.184Z,46.89
2023-04-18T09:53:39.167Z,43.40
2023-04-18T09:54:39.122Z,56.09
2023-04-18T09:55:39.099Z,62.30
2023-04-18T09:56:39.068Z,53.11
2023-04-18T09:57:39.044Z,52.55
2023-04-18T09:58:39.020Z,64.25
2023-04-18T09:59:39.005Z,66.65
2023-04-18T10:00:39.946Z,59.70
2023-04-18T10:01:39.012Z,68.74
2023-04-18T10:02:39.033Z,55.56
2023-04-18T10:03:38.971Z,62.72
2023-04-18T10:04:39.012Z,43.96
2023-04-18T10:05:38.920Z,41.33
2023-04-18T10:06:38.842Z,45.90
2023-04-18T10:07:39.518Z,33.52
2023-04-18T10:08:38.795Z,30.83
2023-04-18T10:09:38.799Z,27.47
2023-04-18T10:10:39.313Z,31.20
2023-04-18T10:11:38.770Z,32.37
2023-04-18T10:12:38.771Z,30.82
2023-04-18T10:13:38.743Z,25.00
2023-04-18T10:14:38.738Z,24.78
2023-04-18T10:15:38.814Z,26.91
2023-04-18T10:16:38.850Z,17.63
2023-04-18T10:17:39.206Z,22.02
2023-04-18T10:18:38.780Z,12.83
2023-04-18T10:19:38.774Z,16.27
2023-04-18T10:20:38.870Z,26.23
2023-04-18T10:21:38.807Z,27.64
2023-04-18T10:22:40.448Z,28.43
2023-04-18T10:23:38.838Z,44.63
2023-04-18T10:24:38.856Z,62.90
2023-04-18T10:25:38.874Z,72.38
2023-04-18T10:26:38.878Z,76.26
2023-04-18T10:27:38.893Z,81.12
2023-04-18T10:28:39.530Z,84.15
2023-04-18T10:29:38.900Z,87.46
2023-04-18T10:30:38.919Z,89.52
2023-04-18T10:31:39.005Z,90.76
2023-04-18T10:32:38.944Z,93.46
2023-04-18T10:33:41.024Z,92.91
2023-04-18T10:34:38.925Z,97.83
2023-04-18T10:35:40.885Z,96.38
2023-04-18T10:36:38.962Z,96.47
2023-04-18T10:37:38.947Z,96.92
2023-04-18T10:38:39.527Z,97.83
2023-04-18T10:39:39.459Z,99.61
2023-04-18T10:40:38.968Z,100.27
2023-04-18T10:41:38.975Z,101.70
2023-04-18T10:42:38.996Z,103.90
2023-04-18T10:43:38.985Z,104.16
2023-04-18T10:44:38.988Z,105.23
2023-04-18T10:45:39.001Z,107.17
2023-04-18T10:46:39.042Z,106.61
2023-04-18T10:47:39.065Z,108.30
2023-04-18T10:48:39.057Z,109.25
2023-04-18T10:49:39.023Z,109.88
2023-04-18T10:50:39.007Z,109.80
2023-04-18T10:51:39.010Z,110.66
2023-04-18T10:52:39.555Z,111.52
2023-04-18T10:53:39.046Z,113.23
2023-04-18T10:54:39.128Z,113.95
2023-04-18T10:55:39.036Z,114.38
2023-04-18T10:56:39.037Z,114.74
2023-04-18T10:57:39.032Z,115.41
2023-04-18T10:58:39.027Z,115.49
2023-04-18T10:59:39.058Z,117.82
2023-04-18T11:00:39.095Z,118.37
2023-04-18T11:01:39.119Z,119.85
2023-04-18T11:02:39.146Z,119.23
2023-04-18T11:03:39.144Z,119.84
2023-04-18T11:04:40.041Z,119.93
2023-04-18T11:05:39.016Z,120.32
2023-04-18T11:06:38.987Z,120.53
2023-04-18T11:07:38.980Z,121.52
2023-04-18T11:08:38.927Z,121.79
2023-04-18T11:09:38.923Z,123.64
2023-04-18T11:10:38.906Z,124.98
2023-04-18T11:11:38.934Z,125.66
2023-04-18T11:12:38.859Z,125.80
2023-04-18T11:13:38.826Z,126.12
2023-04-18T11:14:38.811Z,126.54
2023-04-18T11:15:38.812Z,127.13
2023-04-18T11:16:38.868Z,128.83
2023-04-18T11:17:38.790Z,129.78
2023-04-18T11:18:38.722Z,129.15
2023-04-18T11:19:38.713Z,129.77
2023-04-18T11:20:38.692Z,130.28
2023-04-18T11:21:38.660Z,131.07
2023-04-18T11:22:38.656Z,131.55
2023-04-18T11:23:38.624Z,131.33
2023-04-18T11:24:38.627Z,132.49
2023-04-18T11:25:38.598Z,131.61
2023-04-18T11:26:38.610Z,132.85
2023-04-18T11:27:38.626Z,132.96
2023-04-18T11:28:38.641Z,133.12
2023-04-18T11:29:38.653Z,133.51
2023-04-18T11:30:38.672Z,133.98
2023-04-18T11:31:38.713Z,134.83
2023-04-18T11:32:38.722Z,135.28
2023-04-18T11:33:38.719Z,136.27
2023-04-18T11:34:38.734Z,135.23
2023-04-18T11:35:38.764Z,137.42
2023-04-18T11:36:38.798Z,138.35
2023-04-18T11:37:38.794Z,136.10
2023-04-18T11:38:38.791Z,137.30
2023-04-18T11:39:38.806Z,138.57
2023-04-18T11:40:38.872Z,138.44
2023-04-18T11:41:38.824Z,139.03
2023-04-18T11:42:38.864Z,140.24
2023-04-18T11:43:38.845Z,139.79
2023-04-18T11:44:38.853Z,140.61
2023-04-18T11:45:38.902Z,140.54
2023-04-18T11:46:38.911Z,140.05
2023-04-18T11:47:38.942Z,139.86
2023-04-18T11:48:38.913Z,140.87
2023-04-18T11:49:38.952Z,141.71
2023-04-18T11:50:38.957Z,141.39
2023-04-18T11:51:39.024Z,140.73
2023-04-18T11:52:39.003Z,139.54
2023-04-18T11:53:39.030Z,141.55
2023-04-18T11:54:39.062Z,140.81
2023-04-18T11:55:39.073Z,141.17
2023-04-18T11:56:39.141Z,141.89
2023-04-18T11:57:39.126Z,140.26
2023-04-18T11:58:39.166Z,140.63
2023-04-18T11:59:39.208Z,141.71
2023-04-18T12:00:39.209Z,142.89
2023-04-18T12:01:39.216Z,141.92
2023-04-18T12:02:39.358Z,143.09
2023-04-18T12:03:39.437Z,142.39
2023-04-18T12:04:39.431Z,142.19
2023-04-18T12:05:39.498Z,143.07
2023-04-18T12:06:39.359Z,143.04
2023-04-18T12:07:39.367Z,144.57
2023-04-18T12:08:41.000Z,142.43
2023-04-18T12:09:39.377Z,142.43
2023-04-18T12:10:39.413Z,141.65
2023-04-18T12:11:39.414Z,143.35
2023-04-18T12:12:39.452Z,143.78
2023-04-18T12:13:39.458Z,142.51
2023-04-18T12:14:39.477Z,144.73
2023-04-18T12:15:39.613Z,143.64
2023-04-18T12:16:39.492Z,143.96
2023-04-18T12:17:39.582Z,144.06
2023-04-18T12:18:39.551Z,144.06
2023-04-18T12:19:39.569Z,143.24
2023-04-18T12:20:39.646Z,144.26
2023-04-18T12:21:39.606Z,143.63
2023-04-18T12:22:39.632Z,142.87
2023-04-18T12:23:39.629Z,143.08
2023-04-18T12:24:39.649Z,143.88
2023-04-18T12:25:39.696Z,142.16
2023-04-18T12:26:39.701Z,143.27
2023-04-18T12:27:39.719Z,142.31
2023-04-18T12:28:39.819Z,143.95
2023-04-18T12:29:39.774Z,144.02
2023-04-18T12:30:39.858Z,144.05
2023-04-18T12:31:39.814Z,144.55
2023-04-18T12:32:39.856Z,144.05
2023-04-18T12:33:39.861Z,142.81
2023-04-18T12:34:39.874Z,143.37
2023-04-18T12:35:39.887Z,143.54
2023-04-18T12:36:39.911Z,142.90
2023-04-18T12:37:39.941Z,143.49
2023-04-18T12:38:39.941Z,144.26
2023-04-18T12:39:39.968Z,143.53
2023-04-18T12:40:39.987Z,143.08
2023-04-18T12:41:40.028Z,142.39
2023-04-18T12:42:40.051Z,143.56